createdAt,value
2022-10-16T00:01:31.574Z,10.20
2022-10-16T00:04:01.346Z,9.95
2022-10-16T00:06:29.843Z,9.77
2022-10-16T00:08:57.341Z,9.85
2022-10-16T00:11:27.869Z,9.68
2022-10-16T00:13:58.645Z,9.90
2022-10-16T00:16:25.586Z,9.75
2022-10-16T00:18:52.530Z,10.30
2022-10-16T00:21:22.792Z,9.55
2022-10-16T00:23:55.140Z,10.02
2022-10-16T00:26:22.415Z,9.18
2022-10-16T00:28:50.952Z,9.20
2022-10-16T00:31:20.026Z,10.50
2022-10-16T00:33:46.962Z,9.88
2022-10-16T00:36:17.486Z,9.35
2022-10-16T00:38:44.932Z,9.98
2022-10-16T00:41:17.469Z,10.20
2022-10-16T00:43:51.983Z,9.82
2022-10-16T00:46:28.683Z,10.18
2022-10-16T00:49:11.223Z,9.55
2022-10-16T00:51:41.585Z,9.98
2022-10-16T00:54:18.893Z,9.77
2022-10-16T00:56:47.103Z,9.48
2022-10-16T00:59:25.553Z,10.23
2022-10-16T01:01:53.354Z,9.35
2022-10-16T01:04:20.638Z,10.13
2022-10-16T01:07:08.258Z,9.68
2022-10-16T01:09:44.109Z,10.23
2022-10-16T01:12:28.696Z,10.90
2022-10-16T01:15:05.647Z,10.52
2022-10-16T01:17:35.978Z,9.80
2022-10-16T01:20:11.538Z,10.07
2022-10-16T01:22:53.822Z,9.50
2022-10-16T01:25:52.913Z,9.88
2022-10-16T01:28:26.566Z,9.38
2022-10-16T01:31:01.343Z,9.93
2022-10-16T01:33:47.879Z,11.35
2022-10-16T01:36:23.908Z,10.30
2022-10-16T01:38:57.817Z,10.55
2022-10-16T01:41:57.531Z,10.20
2022-10-16T01:44:33.282Z,10.70
2022-10-16T01:47:05.038Z,10.10
2022-10-16T01:49:37.720Z,11.20
2022-10-16T01:52:11.931Z,10.88
2022-10-16T01:54:45.227Z,11.63
2022-10-16T01:57:16.681Z,11.80
2022-10-16T01:59:51.092Z,11.65
2022-10-16T02:02:23.245Z,11.05
2022-10-16T02:05:02.712Z,11.80
2022-10-16T02:07:32.625Z,11.43
2022-10-16T02:10:04.993Z,11.15
2022-10-16T02:12:41.868Z,11.43
2022-10-16T02:15:12.194Z,12.23
2022-10-16T02:17:42.418Z,11.85
2022-10-16T02:20:12.332Z,12.20
2022-10-16T02:22:51.466Z,11.98
2022-10-16T02:25:43.189Z,12.32
2022-10-16T02:28:27.369Z,12.35
2022-10-16T02:31:11.591Z,12.10
2022-10-16T02:33:44.579Z,12.90
2022-10-16T02:36:15.107Z,13.77
2022-10-16T02:38:44.084Z,12.60
2022-10-16T02:41:14.320Z,12.10
2022-10-16T02:43:44.241Z,11.32
2022-10-16T02:46:14.151Z,12.50
2022-10-16T02:48:43.613Z,13.00
2022-10-16T02:51:13.986Z,13.40
2022-10-16T02:53:44.514Z,11.82
2022-10-16T02:56:14.773Z,12.73
2022-10-16T02:58:45.146Z,13.35
2022-10-16T03:01:16.095Z,12.77
2022-10-16T03:03:45.702Z,13.60
2022-10-16T03:06:15.310Z,14.18
2022-10-16T03:08:44.924Z,14.55
2022-10-16T03:11:14.223Z,13.20
2022-10-16T03:13:44.441Z,13.52
2022-10-16T03:16:14.668Z,13.55
2022-10-16T03:18:44.895Z,12.93
2022-10-16T03:21:14.809Z,14.05
2022-10-16T03:23:44.106Z,14.05
2022-10-16T03:26:14.019Z,13.82
2022-10-16T03:28:43.655Z,14.55
2022-10-16T03:31:13.283Z,15.15
2022-10-16T03:33:43.145Z,14.63
2022-10-16T03:36:12.143Z,16.13
2022-10-16T03:38:41.446Z,15.00
2022-10-16T03:41:11.362Z,14.35
2022-10-16T03:43:40.963Z,14.82
2022-10-16T03:46:09.646Z,15.27
2022-10-16T03:48:38.537Z,16.27
2022-10-16T03:51:07.637Z,15.48
2022-10-16T03:53:36.261Z,14.82
2022-10-16T03:56:05.633Z,15.15
2022-10-16T03:58:35.547Z,15.48
2022-10-16T04:01:05.481Z,15.25
2022-10-16T04:03:34.141Z,15.55
2022-10-16T04:06:03.983Z,15.40
2022-10-16T04:08:36.734Z,15.75
2022-10-16T04:11:06.967Z,15.52
2022-10-16T04:13:34.207Z,15.13
2022-10-16T04:16:01.430Z,16.02
2022-10-16T04:18:28.383Z,15.57
2022-10-16T04:20:55.815Z,14.50
2022-10-16T04:23:24.034Z,15.63
2022-10-16T04:25:51.762Z,15.60
2022-10-16T04:28:18.739Z,14.63
2022-10-16T04:30:45.753Z,15.40
2022-10-16T04:33:13.932Z,15.88
2022-10-16T04:35:40.818Z,15.88
2022-10-16T04:38:07.722Z,15.02
2022-10-16T04:40:37.082Z,15.98
2022-10-16T04:43:05.269Z,15.40
2022-10-16T04:45:32.574Z,16.33
2022-10-16T04:48:00.365Z,14.85
2022-10-16T04:50:27.610Z,16.27
2022-10-16T04:52:54.545Z,16.52
2022-10-16T04:55:21.492Z,16.50
2022-10-16T04:57:48.397Z,16.63
2022-10-16T05:00:15.436Z,15.55
2022-10-16T05:02:42.376Z,16.27
2022-10-16T05:05:09.558Z,15.57
2022-10-16T05:07:36.502Z,16.52
2022-10-16T05:10:03.528Z,17.52
2022-10-16T05:12:30.486Z,16.92
2022-10-16T05:14:59.795Z,17.58
2022-10-16T05:17:27.938Z,18.13
2022-10-16T05:19:55.412Z,18.42
2022-10-16T05:22:22.451Z,17.40
2022-10-16T05:24:49.398Z,17.85
2022-10-16T05:27:20.058Z,18.50
2022-10-16T05:29:48.383Z,18.33
2022-10-16T05:32:17.162Z,20.25
2022-10-16T05:34:44.459Z,19.08
2022-10-16T05:37:12.596Z,21.02
2022-10-16T05:39:40.296Z,18.70
2022-10-16T05:42:07.262Z,21.17
2022-10-16T05:47:06.199Z,18.95
2022-10-16T05:49:34.867Z,21.08
2022-10-16T05:52:03.659Z,19.75
2022-10-16T05:54:30.558Z,20.25
2022-10-16T05:56:57.452Z,21.45
2022-10-16T05:59:24.423Z,19.35
2022-10-16T06:01:51.302Z,20.95
2022-10-16T06:04:18.232Z,21.40
2022-10-16T06:06:45.129Z,21.65
2022-10-16T06:09:12.111Z,20.48
2022-10-16T06:11:39.031Z,20.30
2022-10-16T06:14:08.105Z,19.65
2022-10-16T06:19:13.115Z,20.20
2022-10-16T06:21:40.056Z,19.63
2022-10-16T06:24:07.129Z,20.73
2022-10-16T06:26:34.125Z,19.67
2022-10-16T06:29:01.572Z,20.23
2022-10-16T06:31:32.236Z,20.08
2022-10-16T06:33:59.873Z,18.88
2022-10-16T06:36:27.695Z,19.52
2022-10-16T06:38:54.883Z,19.45
2022-10-16T06:41:23.708Z,19.23
2022-10-16T06:43:50.724Z,20.27
2022-10-16T06:46:21.057Z,18.80
2022-10-16T06:48:48.328Z,20.52
2022-10-16T06:51:17.527Z,19.83
2022-10-16T06:54:04.990Z,21.25
2022-10-16T06:56:33.263Z,22.00
2022-10-16T06:59:00.653Z,19.08
2022-10-16T07:01:28.060Z,20.05
2022-10-16T07:03:55.257Z,21.10
2022-10-16T07:06:24.462Z,19.13
2022-10-16T07:08:52.330Z,20.30
2022-10-16T07:11:22.275Z,20.23
2022-10-16T07:13:54.396Z,19.85
2022-10-16T07:16:26.290Z,20.30
2022-10-16T07:18:59.282Z,20.30
2022-10-16T07:21:29.949Z,20.30
2022-10-16T07:24:02.465Z,19.80
2022-10-16T07:26:32.140Z,20.08
2022-10-16T07:28:59.520Z,20.20
2022-10-16T07:31:28.382Z,19.88
2022-10-16T07:33:56.094Z,20.67
2022-10-16T07:36:23.449Z,19.77
2022-10-16T07:38:52.813Z,19.77
2022-10-16T07:41:22.461Z,18.85
2022-10-16T07:43:50.954Z,20.05
2022-10-16T07:46:18.779Z,20.10
2022-10-16T07:48:49.145Z,20.25
2022-10-16T07:51:18.544Z,20.83
2022-10-16T07:53:45.780Z,20.15
2022-10-16T07:56:13.152Z,20.83
2022-10-16T07:58:40.546Z,20.15
2022-10-16T08:01:09.873Z,19.90
2022-10-16T08:03:37.649Z,20.35
2022-10-16T08:06:05.656Z,19.50
2022-10-16T08:08:32.668Z,20.27
2022-10-16T08:10:59.563Z,19.67
2022-10-16T08:13:27.645Z,20.55
2022-10-16T08:15:55.718Z,19.98
2022-10-16T08:18:23.113Z,19.48
2022-10-16T08:20:56.855Z,20.33
2022-10-16T08:23:24.200Z,19.77
2022-10-16T08:25:51.152Z,19.98
2022-10-16T08:28:18.110Z,20.33
2022-10-16T08:30:47.051Z,21.00
2022-10-16T08:33:17.579Z,20.55
2022-10-16T08:35:55.983Z,20.55
2022-10-16T08:38:25.875Z,20.20
2022-10-16T08:40:56.847Z,20.83
2022-10-16T08:43:46.100Z,20.50
2022-10-16T08:46:37.290Z,20.58
2022-10-16T08:49:04.894Z,21.33
2022-10-16T08:51:37.075Z,20.23
2022-10-16T08:54:23.354Z,20.42
2022-10-16T08:56:50.310Z,18.90
2022-10-16T08:59:18.295Z,20.55
2022-10-16T09:01:52.346Z,20.15
2022-10-16T09:04:56.813Z,19.13
2022-10-16T09:07:42.326Z,21.15
2022-10-16T09:10:39.152Z,19.70
2022-10-16T09:13:20.814Z,20.40
2022-10-16T09:16:05.648Z,20.88
2022-10-16T09:18:41.222Z,20.20
2022-10-16T09:21:19.482Z,20.10
2022-10-16T09:23:46.744Z,20.63
2022-10-16T09:26:15.411Z,20.15
2022-10-16T09:28:42.479Z,20.48
2022-10-16T09:31:18.555Z,19.38
2022-10-16T09:33:49.184Z,20.45
2022-10-16T09:36:16.609Z,20.73
2022-10-16T09:38:43.590Z,19.70
2022-10-16T09:41:21.254Z,21.45
2022-10-16T09:43:50.776Z,19.45
2022-10-16T09:46:26.136Z,20.85
2022-10-16T09:48:57.147Z,20.38
2022-10-16T09:54:03.816Z,20.75
2022-10-16T09:56:37.363Z,19.55
2022-10-16T09:59:12.817Z,22.00
2022-10-16T10:01:42.491Z,20.85
2022-10-16T10:04:10.007Z,21.45
2022-10-16T10:06:43.357Z,21.02
2022-10-16T10:09:34.043Z,22.92
2022-10-16T10:14:39.161Z,19.70
2022-10-16T10:17:06.035Z,21.75
2022-10-16T10:20:16.502Z,19.23
2022-10-16T10:22:48.399Z,20.23
2022-10-16T10:25:38.384Z,19.67
2022-10-16T10:28:17.212Z,20.58
2022-10-16T10:31:01.982Z,20.42
2022-10-16T10:34:02.899Z,19.95
2022-10-16T10:36:37.864Z,20.60
2022-10-16T10:39:26.479Z,19.90
2022-10-16T10:42:24.224Z,19.67
2022-10-16T10:45:09.914Z,19.67
2022-10-16T10:47:36.799Z,19.85
2022-10-16T10:50:26.239Z,18.85
2022-10-16T10:53:16.467Z,19.15
2022-10-16T10:56:01.481Z,19.80
2022-10-16T10:58:33.617Z,19.20
2022-10-16T11:01:15.586Z,20.58
2022-10-16T11:04:20.923Z,20.30
2022-10-16T11:06:56.782Z,19.10
2022-10-16T11:09:29.536Z,18.60
2022-10-16T11:12:03.505Z,19.33
2022-10-16T11:14:47.751Z,19.83
2022-10-16T11:17:30.347Z,19.63
2022-10-16T11:20:12.834Z,19.55
2022-10-16T11:22:46.243Z,18.17
2022-10-16T11:25:23.354Z,18.77
2022-10-16T11:28:14.542Z,19.00
2022-10-16T11:33:34.286Z,18.98
2022-10-16T11:36:40.048Z,19.30
2022-10-16T11:39:19.552Z,18.80
2022-10-16T11:41:52.111Z,18.58
2022-10-16T11:44:42.338Z,19.15
2022-10-16T11:50:30.535Z,18.92
2022-10-16T11:53:21.887Z,19.08
2022-10-16T11:55:48.993Z,19.38
2022-10-16T11:58:28.351Z,19.20
2022-10-16T12:01:10.291Z,19.33
2022-10-16T12:03:55.200Z,20.38
2022-10-16T12:06:59.369Z,18.67
2022-10-16T12:09:32.410Z,19.08
2022-10-16T12:12:00.101Z,19.50
2022-10-16T12:15:11.329Z,18.42
2022-10-16T12:17:39.275Z,19.08
2022-10-16T12:20:18.317Z,18.52
2022-10-16T12:23:06.454Z,17.77
2022-10-16T12:25:40.268Z,17.30
2022-10-16T12:28:20.398Z,17.50
2022-10-16T12:30:59.325Z,17.73
2022-10-16T12:33:34.191Z,17.33
2022-10-16T12:36:04.897Z,17.77
2022-10-16T12:38:52.801Z,17.60
2022-10-16T12:41:31.614Z,16.67
2022-10-16T12:43:59.736Z,17.75
2022-10-16T12:46:34.199Z,15.75
2022-10-16T12:49:17.594Z,15.60
2022-10-16T12:51:44.916Z,17.50
2022-10-16T12:54:11.777Z,18.42
2022-10-16T12:57:30.619Z,16.08
2022-10-16T13:00:11.469Z,17.00
2022-10-16T13:03:23.978Z,16.42
2022-10-16T13:06:20.318Z,16.60
2022-10-16T13:08:57.158Z,16.52
2022-10-16T13:11:49.771Z,16.25
2022-10-16T13:14:35.180Z,15.90
2022-10-16T13:17:24.057Z,16.42
2022-10-16T13:20:00.008Z,16.27
2022-10-16T13:22:41.961Z,16.50
2022-10-16T13:25:23.985Z,15.15
2022-10-16T13:28:01.314Z,16.52
2022-10-16T13:30:31.691Z,16.00
2022-10-16T13:33:27.183Z,15.88
2022-10-16T13:35:56.261Z,15.95
2022-10-16T13:38:25.602Z,15.15
2022-10-16T13:41:16.672Z,15.65
2022-10-16T13:46:21.161Z,15.65
2022-10-16T13:49:12.453Z,15.35
2022-10-16T13:51:39.365Z,16.15
2022-10-16T13:54:06.415Z,16.30
2022-10-16T13:56:34.800Z,17.05
2022-10-16T13:59:07.040Z,16.77
2022-10-16T14:01:43.533Z,16.77
2022-10-16T14:04:13.083Z,16.80
2022-10-16T14:06:46.409Z,16.48
2022-10-16T14:09:32.791Z,16.45
2022-10-16T14:12:09.289Z,17.42
2022-10-16T14:14:43.192Z,16.83
2022-10-16T14:17:19.718Z,17.00
2022-10-16T14:19:55.475Z,17.75
2022-10-16T14:22:30.619Z,17.58
2022-10-16T14:24:57.574Z,18.25
2022-10-16T14:27:32.063Z,17.95
2022-10-16T14:30:14.959Z,18.13
2022-10-16T14:32:43.591Z,16.35
2022-10-16T14:35:29.335Z,17.38
2022-10-16T14:37:58.144Z,16.83
2022-10-16T14:40:28.976Z,17.48
2022-10-16T14:42:56.508Z,17.95
2022-10-16T14:45:28.120Z,19.08
2022-10-16T14:48:19.716Z,18.30
2022-10-16T14:50:47.045Z,17.67
2022-10-16T14:53:14.624Z,19.15
2022-10-16T14:55:42.723Z,19.23
2022-10-16T14:58:18.847Z,19.08
2022-10-16T15:00:46.076Z,18.02
2022-10-16T15:03:12.966Z,18.48
2022-10-16T15:05:40.033Z,19.30
2022-10-16T15:08:06.946Z,18.95
2022-10-16T15:10:40.335Z,19.23
2022-10-16T15:13:07.228Z,19.95
2022-10-16T15:15:41.375Z,19.42
2022-10-16T15:18:08.493Z,19.67
2022-10-16T15:20:37.073Z,20.80
2022-10-16T15:23:23.540Z,21.05
2022-10-16T15:25:54.754Z,20.67
2022-10-16T15:28:23.224Z,20.92
2022-10-16T15:30:52.775Z,20.02
2022-10-16T15:33:23.886Z,21.60
2022-10-16T15:35:52.743Z,23.25
2022-10-16T15:38:21.799Z,24.13
2022-10-16T15:40:50.098Z,23.02
2022-10-16T15:43:17.172Z,22.48
2022-10-16T15:45:44.092Z,21.25
2022-10-16T15:48:14.725Z,23.30
2022-10-16T15:53:11.251Z,20.77
2022-10-16T15:55:38.936Z,20.23
2022-10-16T15:58:06.495Z,19.65
2022-10-16T16:00:33.432Z,20.55
2022-10-16T16:03:00.784Z,20.75
2022-10-16T16:05:28.590Z,20.10
2022-10-16T16:07:55.530Z,19.40
2022-10-16T16:10:22.669Z,21.52
2022-10-16T16:12:53.024Z,19.05
2022-10-16T16:15:23.844Z,18.48
2022-10-16T16:17:50.939Z,18.60
2022-10-16T16:20:18.042Z,17.77
2022-10-16T16:22:45.007Z,18.05
2022-10-16T16:25:12.147Z,17.58
2022-10-16T16:27:39.656Z,16.50
2022-10-16T16:30:16.756Z,18.70
2022-10-16T16:32:46.791Z,18.45
2022-10-16T16:35:13.662Z,16.73
2022-10-16T16:37:40.684Z,17.88
2022-10-16T16:40:07.746Z,17.92
2022-10-16T16:42:34.660Z,18.42
2022-10-16T16:45:10.690Z,25.33
2022-10-16T16:47:39.467Z,24.25
2022-10-16T16:50:08.063Z,27.65
2022-10-16T16:52:36.351Z,19.27
2022-10-16T16:55:03.485Z,20.95
2022-10-16T16:57:30.879Z,18.92
2022-10-16T16:59:58.003Z,19.45
2022-10-16T17:02:25.225Z,20.90
2022-10-16T17:04:52.165Z,20.92
2022-10-16T17:07:23.213Z,17.92
2022-10-16T17:09:51.289Z,18.85
2022-10-16T17:12:18.236Z,19.27
2022-10-16T17:14:45.169Z,19.50
2022-10-16T17:17:12.054Z,18.27
2022-10-16T17:19:39.019Z,20.08
2022-10-16T17:22:05.995Z,17.20
2022-10-16T17:24:32.919Z,18.33
2022-10-16T17:26:59.806Z,18.15
2022-10-16T17:29:26.794Z,17.27
2022-10-16T17:31:53.744Z,17.50
2022-10-16T17:34:20.710Z,17.30
2022-10-16T17:36:47.916Z,17.38
2022-10-16T17:39:19.705Z,16.02
2022-10-16T17:41:48.051Z,15.18
2022-10-16T17:44:20.185Z,15.38
2022-10-16T17:46:52.935Z,15.15
2022-10-16T17:49:21.152Z,14.45
2022-10-16T17:51:52.835Z,14.00
2022-10-16T17:54:20.487Z,13.80
2022-10-16T17:56:48.793Z,13.13
2022-10-16T17:59:15.867Z,13.30
2022-10-16T18:01:46.210Z,12.80
2022-10-16T18:04:16.663Z,13.95
2022-10-16T18:06:44.833Z,12.68
2022-10-16T18:09:15.137Z,13.55
2022-10-16T18:11:42.185Z,13.88
2022-10-16T18:14:09.167Z,13.30
2022-10-16T18:16:37.144Z,12.77
2022-10-16T18:19:04.110Z,12.85
2022-10-16T18:21:31.506Z,12.82
2022-10-16T18:23:59.736Z,12.65
2022-10-16T18:26:27.224Z,12.88
2022-10-16T18:28:56.269Z,12.77
2022-10-16T18:31:26.522Z,12.55
2022-10-16T18:33:54.432Z,12.48
2022-10-16T18:36:29.501Z,13.02
2022-10-16T18:38:57.613Z,12.13
2022-10-16T18:41:25.473Z,12.00
2022-10-16T18:43:52.703Z,11.85
2022-10-16T18:46:22.073Z,10.98
2022-10-16T18:48:51.201Z,11.73
2022-10-16T18:51:22.387Z,11.98
2022-10-16T18:53:51.660Z,12.05
2022-10-16T18:56:20.045Z,12.30
2022-10-16T18:58:50.442Z,12.02
2022-10-16T19:01:22.366Z,12.68
2022-10-16T19:03:54.197Z,13.18
2022-10-16T19:06:21.207Z,12.32
2022-10-16T19:08:48.126Z,11.75
2022-10-16T19:11:17.764Z,13.00
2022-10-16T19:13:46.083Z,12.57
2022-10-16T19:16:20.246Z,12.40
2022-10-16T19:18:49.221Z,12.10
2022-10-16T19:21:16.858Z,12.75
2022-10-16T19:23:43.890Z,12.95
2022-10-16T19:26:16.613Z,14.18
2022-10-16T19:28:44.637Z,12.98
2022-10-16T22:53:51.023Z,10.50
2022-10-16T22:56:20.291Z,9.77
2022-10-16T22:58:47.462Z,9.70
2022-10-16T23:01:16.052Z,10.63
2022-10-16T23:03:42.981Z,10.07
2022-10-16T23:06:10.034Z,9.05
2022-10-16T23:08:37.083Z,10.05
2022-10-16T23:11:10.035Z,10.27
2022-10-16T23:13:38.467Z,9.75
2022-10-16T23:16:07.011Z,8.85
2022-10-16T23:18:37.350Z,8.77
2022-10-16T23:21:09.040Z,9.10
2022-10-16T23:23:37.202Z,7.80
2022-10-16T23:26:09.791Z,7.95
2022-10-16T23:28:37.123Z,8.15
2022-10-16T23:31:05.495Z,7.20
2022-10-16T23:33:33.993Z,7.35
2022-10-16T23:36:05.176Z,6.93
2022-10-16T23:38:32.176Z,7.38
2022-10-16T23:40:59.134Z,7.22
2022-10-16T23:43:26.213Z,7.20
2022-10-16T23:45:53.110Z,6.75
2022-10-16T23:48:20.038Z,7.03
2022-10-16T23:50:47.104Z,6.75
2022-10-16T23:53:14.065Z,6.57
2022-10-16T23:55:40.987Z,7.45
2022-10-16T23:58:07.951Z,5.95
